Time;durP1;ratioP1;P1;durP2;ratioP2;P2;SDS_P1;SDS_P2;PMS_P1;PMS_P2;Temp;Humidity;BMP_temperature;BMP_pressure;BME280_temperature;BME280_humidity;BME280_pressure;Samples;Min_cycle;Max_cycle;Signal;HPM_P1;HPM_P2
2022/09/25 00:00:16;;;;;;;28.40;21.87;;;;;;;15.42;100.00;97758.13;4173951;28;21090;-82
2022/09/25 00:02:19;;;;;;;23.57;21.07;;;;;;;15.45;100.00;97759.66;4177600;28;20655;-81
2022/09/25 00:04:22;;;;;;;27.27;22.90;;;;;;;15.44;100.00;97756.22;4168787;28;20705;-81
2022/09/25 00:06:27;;;;;;;26.30;22.70;;;;;;;15.47;100.00;97768.22;4178557;28;20679;-81
2022/09/25 00:08:30;;;;;;;25.83;22.33;;;;;;;15.48;100.00;97759.38;4181011;28;20629;-81
2022/09/25 00:10:33;;;;;;;24.60;21.73;;;;;;;15.48;100.00;97764.63;4177140;28;21449;-81
2022/09/25 00:12:38;;;;;;;24.40;21.80;;;;;;;15.49;100.00;97758.44;4177753;28;20655;-81
2022/09/25 00:14:42;;;;;;;25.87;23.07;;;;;;;15.49;100.00;97763.69;4178203;28;21194;-82
2022/09/25 00:16:45;;;;;;;25.50;22.23;;;;;;;15.49;100.00;97763.69;4172989;28;20635;-81
2022/09/25 00:21:20;;;;;;;28.07;23.60;;;;;;;15.50;100.00;97757.44;4116676;28;20642;-82
2022/09/25 00:23:24;;;;;;;27.63;24.37;;;;;;;15.51;100.00;97764.34;4142310;28;21234;-81
2022/09/25 00:25:27;;;;;;;24.87;22.27;;;;;;;15.52;100.00;97752.88;4190638;28;20642;-82
2022/09/25 00:27:31;;;;;;;23.43;20.90;;;;;;;15.52;100.00;97763.41;4174624;28;21011;-81
2022/09/25 00:29:35;;;;;;;24.40;21.77;;;;;;;15.51;100.00;97759.09;4177729;28;20710;-82
2022/09/25 00:31:40;;;;;;;24.53;20.80;;;;;;;15.49;100.00;97753.97;4173701;28;21254;-82
2022/09/25 00:33:43;;;;;;;24.17;21.33;;;;;;;15.49;100.00;97759.25;4165577;28;21088;-81
2022/09/25 00:35:45;;;;;;;22.73;20.30;;;;;;;15.48;100.00;97759.38;4178881;28;20655;-82
2022/09/25 00:37:48;;;;;;;24.80;22.10;;;;;;;15.47;100.00;97753.31;4161773;28;21057;-81
2022/09/25 00:39:51;;;;;;;24.77;22.27;;;;;;;15.46;100.00;97753.44;4179497;28;21045;-81
2022/09/25 00:41:54;;;;;;;26.60;22.10;;;;;;;15.45;100.00;97754.41;4176610;28;20652;-81
2022/09/25 00:43:58;;;;;;;24.87;22.03;;;;;;;15.45;100.00;97751.78;4177205;28;20661;-82
2022/09/25 00:46:01;;;;;;;30.20;24.60;;;;;;;15.46;100.00;97745.56;4178004;28;20659;-81
2022/09/25 00:48:08;;;;;;;27.90;23.03;;;;;;;15.46;100.00;97742.94;4171870;28;20668;-81
2022/09/25 00:50:17;;;;;;;24.87;22.27;;;;;;;15.47;100.00;97741.94;4190716;28;20632;-81
2022/09/25 00:52:20;;;;;;;25.60;22.40;;;;;;;15.46;100.00;97742.94;4186502;28;20645;-81
2022/09/25 00:54:25;;;;;;;26.00;23.20;;;;;;;15.45;100.00;97741.28;4165645;28;20635;-82
2022/09/25 00:56:29;;;;;;;26.17;23.23;;;;;;;15.44;100.00;97731.72;4172530;28;20678;-82
2022/09/25 00:58:34;;;;;;;23.60;21.10;;;;;;;15.43;100.00;97728.28;4167977;28;20687;-82
2022/09/25 01:00:36;;;;;;;25.40;21.90;;;;;;;15.41;100.00;97734.63;4176769;28;20661;-81
2022/09/25 01:02:43;;;;;;;26.67;21.50;;;;;;;15.40;100.00;97725.09;4187945;28;20655;-82
2022/09/25 01:04:48;;;;;;;25.03;22.33;;;;;;;15.40;100.00;97727.75;4190648;28;21056;-81
2022/09/25 01:06:52;;;;;;;24.70;22.23;;;;;;;15.39;100.00;97731.31;4174573;28;20763;-81
2022/09/25 01:08:56;;;;;;;25.57;22.60;;;;;;;15.38;100.00;97724.41;4173492;28;20667;-82
2022/09/25 01:10:59;;;;;;;25.13;22.53;;;;;;;15.39;100.00;97720.81;4177924;28;20655;-82
2022/09/25 01:13:03;;;;;;;26.27;23.37;;;;;;;15.39;100.00;97716.38;4179736;28;20659;-82
2022/09/25 01:15:09;;;;;;;24.53;21.93;;;;;;;15.39;100.00;97721.63;4172351;28;20693;-82
2022/09/25 01:17:17;;;;;;;24.73;22.03;;;;;;;15.40;100.00;97722.47;4191702;28;21142;-82
2022/09/25 01:19:30;;;;;;;24.90;22.20;;;;;;;15.39;100.00;97721.63;4177643;28;20630;-82
2022/09/25 01:21:39;;;;;;;25.50;22.80;;;;;;;15.40;100.00;97722.47;4173314;28;20694;-81
2022/09/25 01:24:12;;;;;;;23.47;20.97;;;;;;;15.39;100.00;97718.19;4171391;28;20663;-81
2022/09/25 01:26:34;;;;;;;23.37;20.87;;;;;;;15.38;100.00;97714.75;4163048;28;20644;-82
2022/09/25 01:28:56;;;;;;;25.43;20.10;;;;;;;15.33;100.00;97716.94;4170937;28;21079;-81
2022/09/25 01:31:04;;;;;;;26.90;22.30;;;;;;;15.34;100.00;97720.41;4173196;28;20643;-82
2022/09/25 01:33:10;;;;;;;24.40;21.83;;;;;;;15.34;100.00;97723.88;4179482;28;20647;-81
2022/09/25 01:35:18;;;;;;;25.50;22.80;;;;;;;15.35;100.00;97722.91;4178896;28;20647;-82
2022/09/25 01:37:26;;;;;;;24.70;22.10;;;;;;;15.35;100.00;97724.69;4176895;28;21246;-82
2022/09/25 01:39:33;;;;;;;28.50;24.30;;;;;;;15.35;100.00;97717.66;4154108;28;20657;-82
2022/09/25 01:41:40;;;;;;;26.33;22.80;;;;;;;15.36;100.00;97718.47;4176770;28;20898;-81
2022/09/25 01:43:47;;;;;;;25.77;22.67;;;;;;;15.34;100.00;97712.53;4161828;28;20643;-81
2022/09/25 01:46:15;;;;;;;24.90;22.20;;;;;;;15.33;100.00;97714.31;4162972;28;20616;-81
2022/09/25 01:48:21;;;;;;;24.93;21.67;;;;;;;15.31;100.00;97718.91;4176779;28;20878;-82
2022/09/25 01:50:28;;;;;;;23.83;21.33;;;;;;;15.31;100.00;97723.34;4195618;28;20750;-82
2022/09/25 01:52:36;;;;;;;24.97;21.07;;;;;;;15.30;100.00;97724.28;4189285;28;20658;-81
2022/09/25 01:54:41;;;;;;;24.93;21.00;;;;;;;15.30;100.00;97716.41;4186264;28;20703;-82
2022/09/25 01:56:50;;;;;;;26.80;21.80;;;;;;;15.31;100.00;97723.34;4153529;28;21129;-82
2022/09/25 01:58:57;;;;;;;24.70;22.10;;;;;;;15.29;100.00;97723.47;4184439;28;20652;-82
2022/09/25 02:01:05;;;;;;;27.50;22.20;;;;;;;15.30;100.00;97724.28;4184877;28;20670;-82
2022/09/25 02:03:13;;;;;;;27.70;22.70;;;;;;;15.30;100.00;97721.66;4201150;28;20678;-82
2022/09/25 02:05:19;;;;;;;27.20;22.67;;;;;;;15.30;100.00;97727.75;4163528;28;20668;-81
2022/09/25 02:07:28;;;;;;;26.50;22.90;;;;;;;15.31;100.00;97728.59;4188043;28;21209;-82
2022/09/25 02:09:35;;;;;;;24.70;21.87;;;;;;;15.30;100.00;97726.91;4188484;28;20680;-81
2022/09/25 02:11:41;;;;;;;26.70;23.03;;;;;;;15.28;100.00;97724.44;4182832;28;20687;-81
2022/09/25 02:13:49;;;;;;;25.90;22.33;;;;;;;15.29;100.00;97720.00;4172825;28;20643;-82
2022/09/25 02:15:55;;;;;;;24.60;21.20;;;;;;;15.29;100.00;97725.25;4178240;28;20643;-81
2022/09/25 02:20:33;;;;;;;24.90;21.57;;;;;;;15.29;100.00;97720.84;4180170;28;20676;-81
2022/09/25 02:22:36;;;;;;;27.93;23.43;;;;;;;15.31;100.00;97721.53;4175049;28;21118;-82
2022/09/25 02:24:46;;;;;;;27.03;23.30;;;;;;;15.32;100.00;97714.47;4184299;28;21319;-81
2022/09/25 02:26:50;;;;;;;28.57;23.27;;;;;;;15.31;100.00;97718.06;4195745;28;21055;-81
2022/09/25 02:28:54;;;;;;;26.03;23.17;;;;;;;15.29;100.00;97720.00;4180822;28;20728;-81
2022/09/25 02:30:58;;;;;;;25.40;22.27;;;;;;;15.29;100.00;97720.00;4186551;28;20702;-82
2022/09/25 02:33:02;;;;;;;24.97;22.27;;;;;;;15.29;100.00;97725.25;4181159;28;21212;-82
2022/09/25 02:35:06;;;;;;;25.83;22.47;;;;;;;15.29;100.00;97722.63;4178895;28;20655;-82
2022/09/25 02:37:12;;;;;;;27.70;22.37;;;;;;;15.30;100.00;97719.03;4179993;28;20733;-81
2022/09/25 02:39:17;;;;;;;31.97;24.27;;;;;;;15.30;100.00;97722.47;4180773;28;20717;-81
2022/09/25 02:41:31;;;;;;;28.30;23.90;;;;;;;15.31;100.00;97723.34;4174349;28;20762;-82
2022/09/25 02:43:42;;;;;;;28.40;24.57;;;;;;;15.32;100.00;97717.09;4178123;28;20701;-82
2022/09/25 02:45:52;;;;;;;28.40;24.13;;;;;;;15.31;100.00;97723.34;4168364;28;21030;-81
2022/09/25 02:48:03;;;;;;;28.17;23.63;;;;;;;15.30;100.00;97713.78;4180141;28;20754;-81
2022/09/25 02:50:14;;;;;;;26.40;23.20;;;;;;;15.29;100.00;97712.13;4175271;28;20705;-81
2022/09/25 02:52:25;;;;;;;25.60;22.40;;;;;;;15.29;100.00;97715.59;4174547;28;20654;-81
2022/09/25 02:54:32;;;;;;;28.13;23.80;;;;;;;15.30;100.00;97722.47;4175696;28;20651;-81
2022/09/25 02:56:38;;;;;;;26.47;22.80;;;;;;;15.27;100.00;97722.78;4156416;28;20646;-81
2022/09/25 02:58:46;;;;;;;25.00;22.33;;;;;;;15.26;100.00;97722.91;4155463;28;21352;-81
2022/09/25 03:00:52;;;;;;;27.87;23.10;;;;;;;15.24;100.00;97719.59;4165876;28;21277;-82
2022/09/25 03:02:58;;;;;;;26.37;23.40;;;;;;;15.24;100.00;97727.50;4170006;28;20657;-81
2022/09/25 03:05:02;;;;;;;28.17;24.27;;;;;;;15.25;100.00;97723.91;4174970;28;20672;-82
2022/09/25 03:07:05;;;;;;;26.00;23.07;;;;;;;15.24;100.00;97722.22;4171911;28;20679;-81
2022/09/25 03:09:10;;;;;;;27.30;22.90;;;;;;;15.23;100.00;97715.31;4167088;28;20664;-82
2022/09/25 03:11:14;;;;;;;27.30;22.70;;;;;;;15.24;100.00;97714.34;4171247;28;21248;-81
2022/09/25 03:13:19;;;;;;;28.23;23.50;;;;;;;15.23;100.00;97710.91;4181378;28;21058;-82
2022/09/25 03:15:24;;;;;;;30.27;23.33;;;;;;;15.24;100.00;97716.97;4178925;28;20671;-82
2022/09/25 03:17:27;;;;;;;28.40;24.10;;;;;;;15.24;100.00;97716.97;4183403;28;20646;-82
2022/09/25 03:19:32;;;;;;;32.00;24.37;;;;;;;15.24;100.00;97717.78;4172512;28;21055;-82
2022/09/25 03:21:35;;;;;;;29.33;24.33;;;;;;;15.23;100.00;97713.53;4172363;28;20647;-81
2022/09/25 03:23:38;;;;;;;29.13;23.77;;;;;;;15.23;100.00;97710.06;4184233;28;21215;-81
2022/09/25 03:25:42;;;;;;;28.83;23.60;;;;;;;15.22;100.00;97709.25;4170038;28;20644;-81
2022/09/25 03:27:53;;;;;;;28.80;24.57;;;;;;;15.23;100.00;97710.06;4173739;28;20650;-82
2022/09/25 03:29:55;;;;;;;25.33;22.47;;;;;;;15.23;100.00;97712.69;4181938;28;20674;-81
2022/09/25 03:31:59;;;;;;;25.50;22.23;;;;;;;15.21;100.00;97712.00;4169274;28;21174;-82
2022/09/25 03:34:02;;;;;;;26.37;22.70;;;;;;;15.21;100.00;97717.25;4161502;28;20664;-83
2022/09/25 03:36:09;;;;;;;31.97;23.57;;;;;;;15.19;100.00;97714.78;4160246;28;21006;-82
2022/09/25 03:38:12;;;;;;;29.80;23.27;;;;;;;15.19;100.00;97708.72;4178984;28;20652;-82
2022/09/25 03:40:15;;;;;;;28.40;24.40;;;;;;;15.20;100.00;97713.00;4184812;28;20655;-82
2022/09/25 03:42:20;;;;;;;29.20;23.87;;;;;;;15.20;100.00;97710.38;4179065;28;20996;-82
2022/09/25 03:44:23;;;;;;;28.43;23.27;;;;;;;15.19;100.00;97714.78;4189687;28;20643;-82
2022/09/25 03:46:28;;;;;;;26.93;22.80;;;;;;;15.18;100.00;97713.13;4181583;28;20736;-82
2022/09/25 03:48:31;;;;;;;28.03;23.77;;;;;;;15.16;100.00;97707.16;4164467;28;20683;-81
2022/09/25 03:50:34;;;;;;;28.87;22.60;;;;;;;15.14;100.00;97705.66;4198225;28;20672;-82
2022/09/25 03:52:38;;;;;;;31.23;23.97;;;;;;;15.15;100.00;97708.13;4174944;28;20702;-82
2022/09/25 03:54:41;;;;;;;29.63;24.60;;;;;;;15.14;100.00;97708.28;4176892;28;20648;-82
2022/09/25 03:56:44;;;;;;;30.40;23.97;;;;;;;15.14;100.00;97708.28;4177453;28;20770;-81
2022/09/25 03:58:49;;;;;;;32.50;27.17;;;;;;;15.14;100.00;97701.22;4176547;28;20678;-81
2022/09/25 04:00:55;;;;;;;31.40;25.63;;;;;;;15.14;100.00;97703.84;4177373;28;21125;-82
2022/09/25 04:02:59;;;;;;;32.80;25.40;;;;;;;15.15;100.00;97713.38;4187568;28;20658;-81
2022/09/25 04:05:02;;;;;;;29.87;24.73;;;;;;;15.18;100.00;97707.03;4179726;28;20705;-81
2022/09/25 04:07:07;;;;;;;32.00;26.47;;;;;;;15.20;100.00;97708.56;4171645;28;20665;-82
2022/09/25 04:09:10;;;;;;;30.67;24.77;;;;;;;15.20;100.00;97713.81;4186988;28;20670;-81
2022/09/25 04:11:13;;;;;;;29.13;24.53;;;;;;;15.21;100.00;97712.00;4175378;28;20671;-81
2022/09/25 04:13:18;;;;;;;34.97;26.47;;;;;;;15.20;100.00;97708.56;4177382;28;20659;-81
2022/09/25 04:15:23;;;;;;;32.40;26.37;;;;;;;15.20;100.00;97710.38;4171307;28;20643;-81
2022/09/25 04:17:27;;;;;;;35.73;27.13;;;;;;;15.19;100.00;97708.72;4177326;28;21233;-82
2022/09/25 04:19:30;;;;;;;31.13;26.07;;;;;;;15.18;100.00;97709.66;4175087;28;20631;-82
2022/09/25 04:21:33;;;;;;;33.40;25.73;;;;;;;15.14;100.00;97713.53;4158529;28;20640;-81
2022/09/25 04:23:37;;;;;;;31.27;25.33;;;;;;;15.09;100.00;97708.69;4180872;28;20682;-82
2022/09/25 04:25:40;;;;;;;27.87;23.73;;;;;;;15.07;100.00;97709.81;4159186;28;20671;-82
2022/09/25 04:27:45;;;;;;;26.80;22.50;;;;;;;15.06;100.00;97708.13;4171279;28;21072;-82
2022/09/25 04:29:48;;;;;;;26.63;21.40;;;;;;;15.06;100.00;97708.13;4155909;28;20665;-82
2022/09/25 04:34:09;;;;;;;28.67;22.33;;;;;;;15.07;100.00;97717.69;4170451;28;20666;-81
2022/09/25 04:36:13;;;;;;;28.80;21.87;;;;;;;15.07;100.00;97721.13;4158340;28;20666;-81
2022/09/25 04:38:16;;;;;;;30.30;23.33;;;;;;;15.09;100.00;97721.00;4176335;28;20644;-82
2022/09/25 04:40:19;;;;;;;28.47;22.37;;;;;;;15.10;100.00;97715.59;4183186;28;21084;-81
2022/09/25 04:42:23;;;;;;;25.97;22.20;;;;;;;15.10;100.00;97712.16;4175933;28;20635;-81
2022/09/25 04:44:26;;;;;;;26.57;23.03;;;;;;;15.11;100.00;97716.44;4175234;28;20671;-83
2022/09/25 04:46:29;;;;;;;28.57;23.33;;;;;;;15.11;100.00;97717.25;4174301;28;20635;-82
2022/09/25 04:48:34;;;;;;;28.83;23.03;;;;;;;15.12;100.00;97718.06;4175978;28;20696;-82
2022/09/25 04:50:38;;;;;;;26.53;21.87;;;;;;;15.12;100.00;97710.19;4173587;28;20693;-82
2022/09/25 04:52:40;;;;;;;29.53;23.70;;;;;;;15.13;100.00;97709.25;4154119;28;20688;-82
2022/09/25 04:54:44;;;;;;;24.77;21.73;;;;;;;15.14;100.00;97708.28;4178297;28;20633;-82
2022/09/25 04:56:47;;;;;;;29.70;22.90;;;;;;;15.14;100.00;97711.72;4169566;28;20987;-81
2022/09/25 04:58:50;;;;;;;29.13;23.10;;;;;;;15.14;100.00;97705.66;4180030;28;20654;-81
2022/09/25 05:00:53;;;;;;;26.30;21.93;;;;;;;15.13;100.00;97707.44;4178530;28;20642;-82
2022/09/25 05:02:57;;;;;;;29.17;23.20;;;;;;;15.14;100.00;97703.03;4184586;28;20639;-81
2022/09/25 05:05:01;;;;;;;30.23;23.07;;;;;;;15.14;100.00;97709.09;4173862;28;20679;-82
2022/09/25 05:07:04;;;;;;;26.97;22.67;;;;;;;15.15;100.00;97704.66;4174644;28;20706;-81
2022/09/25 05:09:07;;;;;;;26.90;22.30;;;;;;;15.16;100.00;97698.44;4174313;28;20647;-82
2022/09/25 05:11:10;;;;;;;31.20;24.57;;;;;;;15.14;100.00;97705.66;4193884;28;20732;-82
2022/09/25 05:13:13;;;;;;;31.17;23.90;;;;;;;15.14;100.00;97703.03;4169683;28;21244;-82
2022/09/25 05:15:16;;;;;;;27.33;23.17;;;;;;;15.14;100.00;97705.66;4182251;28;20672;-82
2022/09/25 05:17:19;;;;;;;27.07;22.17;;;;;;;15.14;100.00;97708.28;4170553;28;20793;-81
2022/09/25 05:19:22;;;;;;;27.07;23.13;;;;;;;15.14;100.00;97703.03;4178608;28;20646;-81
2022/09/25 05:21:27;;;;;;;29.40;24.00;;;;;;;15.13;100.00;97698.72;4188048;28;20781;-82
2022/09/25 05:23:30;;;;;;;29.63;23.07;;;;;;;15.12;100.00;97704.94;4174808;28;20647;-82
2022/09/25 05:25:33;;;;;;;28.60;24.10;;;;;;;15.09;100.00;97705.22;4176465;28;20672;-82
2022/09/25 05:27:36;;;;;;;31.90;25.10;;;;;;;15.08;100.00;97695.72;4161923;28;21043;-81
2022/09/25 05:29:39;;;;;;;31.50;24.43;;;;;;;15.07;100.00;97705.38;4176666;28;20986;-82
2022/09/25 05:31:45;;;;;;;32.13;24.50;;;;;;;15.07;100.00;97702.75;4179602;28;21074;-82
2022/09/25 05:33:50;;;;;;;31.47;24.37;;;;;;;15.08;100.00;97708.84;4172333;28;20655;-82
2022/09/25 05:35:53;;;;;;;35.90;23.47;;;;;;;15.08;100.00;97701.78;4178845;28;20645;-81
2022/09/25 05:37:57;;;;;;;29.07;23.53;;;;;;;15.09;100.00;97700.81;4180060;28;20681;-82
2022/09/25 05:40:00;;;;;;;28.57;23.17;;;;;;;15.10;100.00;97704.25;4178229;28;20691;-82
2022/09/25 05:42:03;;;;;;;32.30;25.73;;;;;;;15.10;100.00;97701.63;4176219;28;21280;-83
2022/09/25 05:44:08;;;;;;;27.37;22.17;;;;;;;15.12;100.00;97702.31;4173748;28;20663;-81
2022/09/25 05:46:11;;;;;;;27.07;22.87;;;;;;;15.11;100.00;97706.75;4178825;28;20637;-81
2022/09/25 05:48:16;;;;;;;30.20;24.97;;;;;;;15.10;100.00;97706.91;4188345;28;20647;-81
2022/09/25 05:50:19;;;;;;;28.50;23.60;;;;;;;15.10;100.00;97712.97;4187089;28;20712;-81
2022/09/25 05:52:22;;;;;;;31.00;23.83;;;;;;;15.07;100.00;97715.06;4192812;28;20661;-81
2022/09/25 05:54:26;;;;;;;31.40;24.10;;;;;;;15.05;100.00;97709.13;4177435;28;21297;-81
2022/09/25 05:56:30;;;;;;;29.90;23.90;;;;;;;15.01;100.00;97714.81;4170480;28;20656;-81
2022/09/25 05:58:34;;;;;;;34.93;24.43;;;;;;;14.94;100.00;97719.75;4177089;28;20666;-81
2022/09/25 06:00:37;;;;;;;30.63;24.50;;;;;;;14.90;100.00;97717.56;4152089;28;20640;-80
2022/09/25 06:02:40;;;;;;;31.87;24.83;;;;;;;14.92;100.00;97719.09;4178572;28;20659;-81
2022/09/25 06:04:43;;;;;;;29.40;23.67;;;;;;;14.92;100.00;97716.47;4158847;28;20667;-81
2022/09/25 06:06:46;;;;;;;33.33;24.13;;;;;;;14.94;100.00;97718.94;4178635;28;20671;-81
2022/09/25 06:08:49;;;;;;;27.60;23.30;;;;;;;14.93;100.00;97718.13;4172353;28;20639;-81
2022/09/25 06:10:54;;;;;;;28.97;23.17;;;;;;;14.95;100.00;97721.44;4150640;28;21028;-80
2022/09/25 06:12:58;;;;;;;31.27;23.63;;;;;;;14.93;100.00;97717.28;4177069;28;20647;-81
2022/09/25 06:15:01;;;;;;;31.83;23.63;;;;;;;14.94;100.00;97711.06;4169852;28;20638;-82
2022/09/25 06:17:04;;;;;;;30.63;24.00;;;;;;;14.96;100.00;97720.47;4192166;28;20646;-81
2022/09/25 06:19:07;;;;;;;29.83;22.30;;;;;;;14.98;100.00;97715.91;4180711;28;20739;-81
2022/09/25 06:21:10;;;;;;;31.77;23.33;;;;;;;15.00;100.00;97716.56;4196304;28;21057;-81
2022/09/25 06:23:14;;;;;;;31.93;23.00;;;;;;;15.02;100.00;97717.28;4199653;28;20641;-82
2022/09/25 06:25:16;;;;;;;33.73;24.40;;;;;;;15.04;100.00;97719.78;4172946;28;20648;-82
2022/09/25 06:27:21;;;;;;;29.83;23.30;;;;;;;15.05;100.00;97718.78;4184927;28;20737;-81
2022/09/25 06:29:24;;;;;;;30.50;22.30;;;;;;;15.06;100.00;97718.66;4179268;28;20658;-81
2022/09/25 06:31:27;;;;;;;30.83;23.50;;;;;;;15.07;100.00;97712.44;4177861;28;21004;-81
2022/09/25 06:33:31;;;;;;;30.93;24.00;;;;;;;15.09;100.00;97713.97;4185821;28;21211;-81
2022/09/25 06:35:34;;;;;;;26.30;22.50;;;;;;;15.12;100.00;97718.94;4164889;28;20654;-82
2022/09/25 06:37:37;;;;;;;31.30;24.67;;;;;;;15.15;100.00;97718.66;4185006;28;21260;-82
2022/09/25 06:39:40;;;;;;;29.23;23.87;;;;;;;15.17;100.00;97715.91;4188177;28;20700;-82
2022/09/25 06:41:42;;;;;;;28.73;23.70;;;;;;;15.19;100.00;97716.59;4182976;28;20606;-82
2022/09/25 06:43:49;;;;;;;31.10;24.07;;;;;;;15.21;100.00;97717.25;4181976;28;20651;-81
2022/09/25 06:45:57;;;;;;;27.63;22.70;;;;;;;15.23;100.00;97721.41;4174976;28;20665;-82
2022/09/25 06:48:01;;;;;;;30.40;24.80;;;;;;;15.27;100.00;97727.22;4179822;28;20673;-82
2022/09/25 06:50:05;;;;;;;29.13;23.77;;;;;;;15.29;100.00;97723.47;4180272;28;21328;-81
2022/09/25 06:52:08;;;;;;;31.07;24.83;;;;;;;15.31;100.00;97728.59;4192308;28;20658;-82
2022/09/25 06:54:11;;;;;;;31.77;23.90;;;;;;;15.32;100.00;97727.59;4175593;28;20655;-82
2022/09/25 06:56:14;;;;;;;31.90;23.53;;;;;;;15.33;100.00;97732.72;4164976;28;20758;-82
2022/09/25 06:58:19;;;;;;;30.30;23.50;;;;;;;15.34;100.00;97731.75;4176410;28;20642;-81
2022/09/25 07:00:24;;;;;;;31.40;23.77;;;;;;;15.36;100.00;97732.44;4174708;28;20655;-82
2022/09/25 07:04:50;;;;;;;29.90;24.27;;;;;;;15.36;100.00;97736.88;4175716;28;21269;-82
2022/09/25 07:06:57;;;;;;;28.50;23.33;;;;;;;15.38;100.00;97734.91;4174011;28;20688;-82
2022/09/25 07:09:02;;;;;;;28.90;23.67;;;;;;;15.39;100.00;97739.22;4184495;28;20647;-82
2022/09/25 07:11:06;;;;;;;29.90;23.20;;;;;;;15.42;100.00;97741.56;4162307;28;20723;-81
2022/09/25 07:13:09;;;;;;;28.57;22.10;;;;;;;15.44;100.00;97745.72;4191590;28;20674;-81
2022/09/25 07:15:12;;;;;;;28.67;22.40;;;;;;;15.46;100.00;97746.38;4165495;28;20643;-81
2022/09/25 07:17:16;;;;;;;28.60;22.43;;;;;;;15.48;100.00;97747.06;4184047;28;21104;-81
2022/09/25 07:19:19;;;;;;;30.47;23.13;;;;;;;15.48;100.00;97741.81;4171758;28;20648;-82
2022/09/25 07:21:30;;;;;;;31.87;22.57;;;;;;;15.50;100.00;97745.13;4178998;28;20650;-81
2022/09/25 07:23:35;;;;;;;31.30;22.50;;;;;;;15.53;100.00;97746.63;4153273;28;20737;-81
2022/09/25 07:25:37;;;;;;;30.20;23.43;;;;;;;15.54;100.00;97740.41;4177340;28;20635;-81
2022/09/25 07:27:40;;;;;;;29.90;24.13;;;;;;;15.55;100.00;97746.34;4186028;28;20662;-81
2022/09/25 07:29:43;;;;;;;30.67;23.53;;;;;;;15.56;100.00;97739.31;4176350;28;20651;-82
2022/09/25 07:31:46;;;;;;;29.80;22.80;;;;;;;15.55;100.00;97741.09;4178236;28;20657;-81
2022/09/25 07:33:51;;;;;;;28.70;22.50;;;;;;;15.57;100.00;97744.41;4179768;28;20647;-81
2022/09/25 07:35:54;;;;;;;27.23;21.53;;;;;;;15.60;100.00;97748.53;4172583;28;21186;-82
2022/09/25 07:37:57;;;;;;;27.13;20.80;;;;;;;15.58;100.00;97750.50;4178336;28;20672;-81
2022/09/25 07:40:01;;;;;;;25.10;21.30;;;;;;;15.57;100.00;97741.78;4176925;28;20643;-82
2022/09/25 07:42:04;;;;;;;28.27;21.10;;;;;;;15.60;100.00;97749.34;4195755;28;20707;-81
2022/09/25 07:44:07;;;;;;;25.17;19.60;;;;;;;15.63;100.00;97756.16;4179484;28;20709;-81
2022/09/25 07:46:30;;;;;;;24.37;18.03;;;;;;;15.67;100.00;97747.81;4172469;28;21182;-81
2022/09/25 07:48:34;;;;;;;23.30;19.10;;;;;;;15.69;100.00;97751.13;4177033;28;20713;-82
2022/09/25 07:50:38;;;;;;;24.37;19.60;;;;;;;15.73;100.00;97749.06;4164673;28;20657;-82
2022/09/25 07:52:41;;;;;;;24.27;19.77;;;;;;;15.77;100.00;97742.53;4170950;28;20678;-82
2022/09/25 07:54:44;;;;;;;22.23;18.80;;;;;;;15.78;100.00;97746.81;4193072;28;20659;-82
2022/09/25 07:56:48;;;;;;;24.50;19.60;;;;;;;15.79;100.00;97740.59;4186952;28;20646;-81
2022/09/25 07:58:52;;;;;;;21.87;19.47;;;;;;;15.82;100.00;97741.13;4175240;28;21214;-81
2022/09/25 08:00:59;;;;;;;21.77;18.00;;;;;;;15.84;99.96;97741.78;4172539;28;20678;-81
2022/09/25 08:03:03;;;;;;;21.53;17.83;;;;;;;15.85;100.00;97743.47;4179841;28;20646;-82
2022/09/25 08:05:07;;;;;;;22.20;17.43;;;;;;;15.86;100.00;97746.91;4176230;28;20665;-81
2022/09/25 08:07:12;;;;;;;20.20;17.33;;;;;;;15.82;99.57;97741.13;4168390;28;20668;-81
2022/09/25 08:09:15;;;;;;;23.80;16.57;;;;;;;15.87;99.31;97738.88;4150946;28;21207;-82
2022/09/25 08:11:18;;;;;;;19.70;17.07;;;;;;;15.90;100.00;97756.19;4174597;28;20632;-82
2022/09/25 08:13:21;;;;;;;22.57;17.90;;;;;;;15.87;99.78;97744.13;4172389;28;20710;-82
2022/09/25 08:15:25;;;;;;;20.30;16.77;;;;;;;15.82;100.00;97751.66;4176486;28;20647;-81
2022/09/25 08:17:30;;;;;;;22.97;17.40;;;;;;;15.81;100.00;97749.97;4175294;28;20631;-82
2022/09/25 08:19:32;;;;;;;21.30;17.50;;;;;;;15.78;98.70;97750.25;4172861;28;20654;-82
2022/09/25 08:21:35;;;;;;;19.80;16.40;;;;;;;15.76;99.68;97744.34;4174351;28;20752;-81
2022/09/25 08:23:40;;;;;;;20.80;16.77;;;;;;;15.77;100.00;97748.63;4176123;28;20656;-82
2022/09/25 08:25:49;;;;;;;19.13;16.10;;;;;;;15.74;100.00;97753.31;4190905;28;20643;-81
2022/09/25 08:27:52;;;;;;;21.97;18.07;;;;;;;15.66;100.00;97748.78;4178727;28;21069;-81
2022/09/25 08:29:55;;;;;;;17.93;15.73;;;;;;;15.57;99.86;97741.78;4158113;28;21249;-82
2022/09/25 08:31:58;;;;;;;21.40;15.27;;;;;;;15.43;100.00;97744.03;4172911;28;20683;-81
2022/09/25 08:34:01;;;;;;;22.00;16.23;;;;;;;15.34;99.34;97744.06;4182591;28;21092;-81
2022/09/25 08:36:24;;;;;;;20.77;17.03;;;;;;;15.29;100.00;97741.88;4180657;28;20645;-81
2022/09/25 08:38:31;;;;;;;18.90;16.00;;;;;;;15.35;99.68;97736.03;4177568;28;20637;-82
2022/09/25 08:40:38;;;;;;;20.03;16.40;;;;;;;15.44;100.00;97739.59;4168063;28;20696;-82
2022/09/25 08:42:51;;;;;;;17.67;15.57;;;;;;;15.53;100.00;97739.59;4175365;28;20733;-82
2022/09/25 08:49:50;;;;;;;20.60;14.70;;;;;;;15.90;98.72;97743.84;4190730;28;21241;-82
2022/09/25 08:51:57;;;;;;;16.90;14.47;;;;;;;15.96;98.90;97737.19;4182768;28;20646;-82
2022/09/25 08:54:01;;;;;;;19.07;14.17;;;;;;;15.99;97.89;97740.34;4180143;28;20754;-81
2022/09/25 08:56:16;;;;;;;17.70;15.33;;;;;;;16.00;97.61;97736.75;4181024;28;20663;-82
2022/09/25 08:58:24;;;;;;;17.10;14.20;;;;;;;16.03;98.48;97734.63;4200989;28;20612;-82
2022/09/25 09:00:29;;;;;;;18.40;14.53;;;;;;;16.06;99.24;97728.28;4181401;28;20893;-81
2022/09/25 09:02:38;;;;;;;16.67;13.83;;;;;;;16.05;99.04;97731.88;4188905;28;20978;-81
2022/09/25 09:04:44;;;;;;;15.60;13.90;;;;;;;16.02;97.68;97715.56;4161903;28;20665;-81
2022/09/25 09:06:52;;;;;;;15.77;13.60;;;;;;;15.97;96.81;97723.06;4188695;28;20642;-81
2022/09/25 09:09:19;;;;;;;17.57;13.90;;;;;;;15.94;98.30;97724.19;4160626;28;21003;-81
2022/09/25 09:11:27;;;;;;;15.20;13.60;;;;;;;15.91;96.89;97724.47;4178767;28;20615;-81
2022/09/25 09:13:33;;;;;;;18.03;14.80;;;;;;;15.92;96.39;97726.13;4158904;28;21167;-82
2022/09/25 09:15:40;;;;;;;16.67;13.80;;;;;;;15.94;98.13;97718.91;4156811;28;21169;-81
2022/09/25 09:17:43;;;;;;;17.33;14.83;;;;;;;15.96;97.84;97727.47;4176563;28;20687;-82
2022/09/25 09:19:48;;;;;;;17.93;15.63;;;;;;;15.97;97.71;97721.25;4177802;28;20718;-81
2022/09/25 09:21:56;;;;;;;17.27;15.47;;;;;;;15.99;96.58;97721.94;4159900;28;20648;-81
2022/09/25 09:24:06;;;;;;;22.03;14.20;;;;;;;16.05;97.86;97730.06;4161584;28;21027;-82
2022/09/25 09:26:13;;;;;;;14.63;12.60;;;;;;;16.14;96.05;97726.53;4159501;28;20647;-81
2022/09/25 09:28:55;;;;;;;14.87;12.50;;;;;;;16.26;96.98;97727.22;4163607;28;20648;-82
2022/09/25 09:31:03;;;;;;;15.70;12.87;;;;;;;16.37;95.45;97730.44;4163212;28;20662;-81
2022/09/25 09:33:17;;;;;;;14.50;12.40;;;;;;;16.44;96.01;97736.78;4178057;28;20673;-81
2022/09/25 09:35:27;;;;;;;14.93;13.03;;;;;;;16.50;96.10;97732.72;4174992;28;20655;-82
2022/09/25 09:37:45;;;;;;;19.10;14.93;;;;;;;16.51;95.52;97732.56;4171227;28;21096;-81
2022/09/25 09:40:02;;;;;;;16.87;14.00;;;;;;;16.55;94.35;97732.13;4174590;28;20663;-82
2022/09/25 09:42:11;;;;;;;16.80;14.97;;;;;;;16.61;95.43;97726.25;4177774;28;20652;-82
2022/09/25 09:44:24;;;;;;;17.40;14.03;;;;;;;16.64;93.24;97723.34;4177543;28;20696;-82